sensor_id;sensor_type;location;lat;lon;timestamp;temperature;humidity
69823;SHT31;57119;52.516;13.508;2022-12-28T00:00:19;3.90;97.60
69823;SHT31;57119;52.516;13.508;2022-12-28T00:02:44;3.90;97.51
69823;SHT31;57119;52.516;13.508;2022-12-28T00:05:09;3.99;97.18
69823;SHT31;57119;52.516;13.508;2022-12-28T00:07:35;4.05;97.02
69823;SHT31;57119;52.516;13.508;2022-12-28T00:10:00;4.02;97.08
69823;SHT31;57119;52.516;13.508;2022-12-28T00:12:25;4.08;97.05
69823;SHT31;57119;52.516;13.508;2022-12-28T00:14:51;4.08;96.78
69823;SHT31;57119;52.516;13.508;2022-12-28T00:17:16;4.14;96.73
69823;SHT31;57119;52.516;13.508;2022-12-28T00:19:42;4.11;96.72
69823;SHT31;57119;52.516;13.508;2022-12-28T00:22:07;4.21;96.30
69823;SHT31;57119;52.516;13.508;2022-12-28T00:24:32;4.19;96.25
69823;SHT31;57119;52.516;13.508;2022-12-28T00:26:59;4.25;96.07
69823;SHT31;57119;52.516;13.508;2022-12-28T00:29:24;4.22;96.15
69823;SHT31;57119;52.516;13.508;2022-12-28T00:31:49;4.33;95.81
69823;SHT31;57119;52.516;13.508;2022-12-28T00:34:15;4.32;95.44
69823;SHT31;57119;52.516;13.508;2022-12-28T00:36:41;4.35;95.48
69823;SHT31;57119;52.516;13.508;2022-12-28T00:39:06;4.35;95.36
69823;SHT31;57119;52.516;13.508;2022-12-28T00:41:31;4.35;95.26
69823;SHT31;57119;52.516;13.508;2022-12-28T00:43:57;4.39;95.26
69823;SHT31;57119;52.516;13.508;2022-12-28T00:46:22;4.33;95.44
69823;SHT31;57119;52.516;13.508;2022-12-28T00:48:48;4.31;95.36
69823;SHT31;57119;52.516;13.508;2022-12-28T00:51:16;4.36;95.26
69823;SHT31;57119;52.516;13.508;2022-12-28T00:53:42;4.38;95.24
69823;SHT31;57119;52.516;13.508;2022-12-28T00:56:09;4.39;95.09
69823;SHT31;57119;52.516;13.508;2022-12-28T00:58:36;4.46;94.87
69823;SHT31;57119;52.516;13.508;2022-12-28T01:01:05;4.41;94.87
69823;SHT31;57119;52.516;13.508;2022-12-28T01:03:35;4.42;94.82
69823;SHT31;57119;52.516;13.508;2022-12-28T01:06:04;4.42;94.73
69823;SHT31;57119;52.516;13.508;2022-12-28T01:08:30;4.50;94.67
69823;SHT31;57119;52.516;13.508;2022-12-28T01:10:55;4.49;94.54
69823;SHT31;57119;52.516;13.508;2022-12-28T01:13:21;4.53;94.50
69823;SHT31;57119;52.516;13.508;2022-12-28T01:15:46;4.57;94.37
69823;SHT31;57119;52.516;13.508;2022-12-28T01:18:12;4.50;94.50
69823;SHT31;57119;52.516;13.508;2022-12-28T01:20:38;4.59;94.18
69823;SHT31;57119;52.516;13.508;2022-12-28T01:23:04;4.52;94.29
69823;SHT31;57119;52.516;13.508;2022-12-28T01:25:32;4.60;93.93
69823;SHT31;57119;52.516;13.508;2022-12-28T01:27:57;4.63;93.97
69823;SHT31;57119;52.516;13.508;2022-12-28T01:30:23;4.59;94.03
69823;SHT31;57119;52.516;13.508;2022-12-28T01:32:48;4.57;94.07
69823;SHT31;57119;52.516;13.508;2022-12-28T01:35:13;4.57;94.14
69823;SHT31;57119;52.516;13.508;2022-12-28T01:37:39;4.53;94.08
69823;SHT31;57119;52.516;13.508;2022-12-28T01:40:05;4.52;94.21
69823;SHT31;57119;52.516;13.508;2022-12-28T01:42:31;4.49;94.39
69823;SHT31;57119;52.516;13.508;2022-12-28T01:45:14;4.49;94.43
69823;SHT31;57119;52.516;13.508;2022-12-28T01:47:40;4.53;94.22
69823;SHT31;57119;52.516;13.508;2022-12-28T01:50:11;4.46;94.44
69823;SHT31;57119;52.516;13.508;2022-12-28T01:52:38;4.49;94.12
69823;SHT31;57119;52.516;13.508;2022-12-28T01:55:12;4.50;94.10
69823;SHT31;57119;52.516;13.508;2022-12-28T01:57:44;4.54;93.92
69823;SHT31;57119;52.516;13.508;2022-12-28T02:00:13;4.43;94.29
69823;SHT31;57119;52.516;13.508;2022-12-28T02:02:45;4.33;94.78
69823;SHT31;57119;52.516;13.508;2022-12-28T02:05:13;4.26;94.92
69823;SHT31;57119;52.516;13.508;2022-12-28T02:10:08;4.16;95.24
69823;SHT31;57119;52.516;13.508;2022-12-28T02:12:34;4.11;95.40
69823;SHT31;57119;52.516;13.508;2022-12-28T02:15:00;4.08;95.52
69823;SHT31;57119;52.516;13.508;2022-12-28T02:17:26;3.98;95.73
69823;SHT31;57119;52.516;13.508;2022-12-28T02:19:52;3.95;95.86
69823;SHT31;57119;52.516;13.508;2022-12-28T02:28:06;3.88;96.08
69823;SHT31;57119;52.516;13.508;2022-12-28T02:30:39;3.87;96.22
69823;SHT31;57119;52.516;13.508;2022-12-28T02:33:17;3.88;96.15
69823;SHT31;57119;52.516;13.508;2022-12-28T02:35:58;3.84;96.13
69823;SHT31;57119;52.516;13.508;2022-12-28T02:38:42;3.80;96.38
69823;SHT31;57119;52.516;13.508;2022-12-28T02:41:18;3.81;96.13
69823;SHT31;57119;52.516;13.508;2022-12-28T02:43:45;3.85;96.16
69823;SHT31;57119;52.516;13.508;2022-12-28T02:49:27;3.85;96.06
69823;SHT31;57119;52.516;13.508;2022-12-28T03:04:22;3.77;96.12
69823;SHT31;57119;52.516;13.508;2022-12-28T03:09:36;3.75;96.17
69823;SHT31;57119;52.516;13.508;2022-12-28T03:12:38;3.60;96.33
69823;SHT31;57119;52.516;13.508;2022-12-28T03:15:12;3.59;96.54
69823;SHT31;57119;52.516;13.508;2022-12-28T03:17:41;3.64;96.38
69823;SHT31;57119;52.516;13.508;2022-12-28T03:20:29;3.63;96.35
69823;SHT31;57119;52.516;13.508;2022-12-28T03:23:16;3.66;96.29
69823;SHT31;57119;52.516;13.508;2022-12-28T03:26:03;3.67;96.33
69823;SHT31;57119;52.516;13.508;2022-12-28T03:28:49;3.66;96.16
69823;SHT31;57119;52.516;13.508;2022-12-28T03:31:35;3.66;96.28
69823;SHT31;57119;52.516;13.508;2022-12-28T03:34:02;3.67;96.15
69823;SHT31;57119;52.516;13.508;2022-12-28T03:36:43;3.69;96.11
69823;SHT31;57119;52.516;13.508;2022-12-28T03:39:23;3.71;96.05
69823;SHT31;57119;52.516;13.508;2022-12-28T03:41:58;3.74;95.72
69823;SHT31;57119;52.516;13.508;2022-12-28T03:44:49;3.73;95.72
69823;SHT31;57119;52.516;13.508;2022-12-28T03:47:17;3.75;95.68
69823;SHT31;57119;52.516;13.508;2022-12-28T03:49:44;3.70;95.75
69823;SHT31;57119;52.516;13.508;2022-12-28T03:52:10;3.71;95.69
69823;SHT31;57119;52.516;13.508;2022-12-28T03:54:37;3.73;95.48
69823;SHT31;57119;52.516;13.508;2022-12-28T03:57:03;3.74;95.19
69823;SHT31;57119;52.516;13.508;2022-12-28T03:59:29;3.74;95.12
69823;SHT31;57119;52.516;13.508;2022-12-28T04:01:54;3.74;95.28
69823;SHT31;57119;52.516;13.508;2022-12-28T04:04:20;3.75;95.03
69823;SHT31;57119;52.516;13.508;2022-12-28T04:06:45;3.74;95.12
69823;SHT31;57119;52.516;13.508;2022-12-28T04:09:11;3.73;95.20
69823;SHT31;57119;52.516;13.508;2022-12-28T04:11:36;3.69;95.25
69823;SHT31;57119;52.516;13.508;2022-12-28T04:14:04;3.74;95.04
69823;SHT31;57119;52.516;13.508;2022-12-28T04:16:33;3.71;95.30
69823;SHT31;57119;52.516;13.508;2022-12-28T04:18:58;3.69;95.08
69823;SHT31;57119;52.516;13.508;2022-12-28T04:21:24;3.66;95.27
69823;SHT31;57119;52.516;13.508;2022-12-28T04:23:49;3.63;95.35
69823;SHT31;57119;52.516;13.508;2022-12-28T04:26:15;3.64;95.23
69823;SHT31;57119;52.516;13.508;2022-12-28T04:28:41;3.64;95.09
69823;SHT31;57119;52.516;13.508;2022-12-28T04:31:09;3.64;95.22
69823;SHT31;57119;52.516;13.508;2022-12-28T04:33:36;3.64;95.02
69823;SHT31;57119;52.516;13.508;2022-12-28T04:36:15;3.60;95.25
69823;SHT31;57119;52.516;13.508;2022-12-28T04:38:41;3.66;94.96
69823;SHT31;57119;52.516;13.508;2022-12-28T04:41:07;3.66;94.84
69823;SHT31;57119;52.516;13.508;2022-12-28T04:43:36;3.70;94.72
69823;SHT31;57119;52.516;13.508;2022-12-28T04:46:06;3.69;94.75
69823;SHT31;57119;52.516;13.508;2022-12-28T04:48:32;3.70;94.63
69823;SHT31;57119;52.516;13.508;2022-12-28T04:51:05;3.70;94.59
69823;SHT31;57119;52.516;13.508;2022-12-28T04:53:31;3.73;94.51
69823;SHT31;57119;52.516;13.508;2022-12-28T04:56:02;3.77;94.30
69823;SHT31;57119;52.516;13.508;2022-12-28T04:58:27;3.75;94.26
69823;SHT31;57119;52.516;13.508;2022-12-28T05:00:53;3.83;94.09
69823;SHT31;57119;52.516;13.508;2022-12-28T05:03:18;3.85;94.00
69823;SHT31;57119;52.516;13.508;2022-12-28T05:05:44;3.77;94.12
69823;SHT31;57119;52.516;13.508;2022-12-28T05:08:10;3.78;94.19
69823;SHT31;57119;52.516;13.508;2022-12-28T05:10:35;3.85;93.84
69823;SHT31;57119;52.516;13.508;2022-12-28T05:13:00;3.84;94.03
69823;SHT31;57119;52.516;13.508;2022-12-28T05:15:26;3.85;93.96
69823;SHT31;57119;52.516;13.508;2022-12-28T05:17:53;3.81;94.04
69823;SHT31;57119;52.516;13.508;2022-12-28T05:20:18;3.73;94.35
69823;SHT31;57119;52.516;13.508;2022-12-28T05:22:44;3.78;94.19
69823;SHT31;57119;52.516;13.508;2022-12-28T05:25:10;3.85;94.01
69823;SHT31;57119;52.516;13.508;2022-12-28T05:27:35;3.87;93.96
69823;SHT31;57119;52.516;13.508;2022-12-28T05:30:00;3.91;93.73
69823;SHT31;57119;52.516;13.508;2022-12-28T05:32:26;3.87;93.94
69823;SHT31;57119;52.516;13.508;2022-12-28T05:34:51;3.87;94.02
69823;SHT31;57119;52.516;13.508;2022-12-28T05:37:17;3.90;93.82
69823;SHT31;57119;52.516;13.508;2022-12-28T05:39:42;3.88;93.85
69823;SHT31;57119;52.516;13.508;2022-12-28T05:42:07;3.91;93.77
69823;SHT31;57119;52.516;13.508;2022-12-28T05:44:33;3.90;93.80
69823;SHT31;57119;52.516;13.508;2022-12-28T05:46:59;3.93;93.87
69823;SHT31;57119;52.516;13.508;2022-12-28T05:49:24;3.93;93.78
69823;SHT31;57119;52.516;13.508;2022-12-28T05:51:50;3.91;93.88
69823;SHT31;57119;52.516;13.508;2022-12-28T05:54:18;3.94;93.79
69823;SHT31;57119;52.516;13.508;2022-12-28T05:56:44;4.01;93.55
69823;SHT31;57119;52.516;13.508;2022-12-28T05:59:09;3.99;93.61
69823;SHT31;57119;52.516;13.508;2022-12-28T06:01:38;3.97;93.62
69823;SHT31;57119;52.516;13.508;2022-12-28T06:04:06;4.04;93.41
69823;SHT31;57119;52.516;13.508;2022-12-28T06:06:33;4.02;93.52
69823;SHT31;57119;52.516;13.508;2022-12-28T06:08:59;4.05;93.31
69823;SHT31;57119;52.516;13.508;2022-12-28T06:11:27;4.05;93.37
69823;SHT31;57119;52.516;13.508;2022-12-28T06:13:52;4.11;93.42
69823;SHT31;57119;52.516;13.508;2022-12-28T06:18:45;4.11;93.22
69823;SHT31;57119;52.516;13.508;2022-12-28T06:23:38;4.12;93.25
69823;SHT31;57119;52.516;13.508;2022-12-28T06:26:05;4.15;93.24
69823;SHT31;57119;52.516;13.508;2022-12-28T06:28:31;4.15;93.10
69823;SHT31;57119;52.516;13.508;2022-12-28T06:31:13;4.22;92.98
69823;SHT31;57119;52.516;13.508;2022-12-28T06:33:39;4.21;93.06
69823;SHT31;57119;52.516;13.508;2022-12-28T06:36:13;4.24;93.00
69823;SHT31;57119;52.516;13.508;2022-12-28T06:38:39;4.24;92.95
69823;SHT31;57119;52.516;13.508;2022-12-28T06:41:06;4.31;92.83
69823;SHT31;57119;52.516;13.508;2022-12-28T06:43:33;4.36;92.62
69823;SHT31;57119;52.516;13.508;2022-12-28T06:45:59;4.41;92.53
69823;SHT31;57119;52.516;13.508;2022-12-28T06:48:26;4.43;92.82
69823;SHT31;57119;52.516;13.508;2022-12-28T06:50:59;4.45;93.49
69823;SHT31;57119;52.516;13.508;2022-12-28T06:53:27;4.36;94.45
69823;SHT31;57119;52.516;13.508;2022-12-28T06:56:00;4.31;95.11
69823;SHT31;57119;52.516;13.508;2022-12-28T06:58:27;4.36;95.11
69823;SHT31;57119;52.516;13.508;2022-12-28T07:00:53;4.28;95.92
69823;SHT31;57119;52.516;13.508;2022-12-28T07:03:23;4.28;96.36
69823;SHT31;57119;52.516;13.508;2022-12-28T07:05:49;4.25;96.14
69823;SHT31;57119;52.516;13.508;2022-12-28T07:08:15;4.26;96.77
69823;SHT31;57119;52.516;13.508;2022-12-28T07:10:41;4.18;97.13
69823;SHT31;57119;52.516;13.508;2022-12-28T07:13:07;4.26;96.73
69823;SHT31;57119;52.516;13.508;2022-12-28T07:15:34;4.21;96.81
69823;SHT31;57119;52.516;13.508;2022-12-28T07:17:59;4.22;97.02
69823;SHT31;57119;52.516;13.508;2022-12-28T07:20:25;4.22;97.06
69823;SHT31;57119;52.516;13.508;2022-12-28T07:22:51;4.22;97.39
69823;SHT31;57119;52.516;13.508;2022-12-28T07:25:17;4.21;97.58
69823;SHT31;57119;52.516;13.508;2022-12-28T07:27:42;4.22;97.62
69823;SHT31;57119;52.516;13.508;2022-12-28T07:30:08;4.26;97.74
69823;SHT31;57119;52.516;13.508;2022-12-28T07:32:37;4.25;97.45
69823;SHT31;57119;52.516;13.508;2022-12-28T07:35:04;4.32;97.42
69823;SHT31;57119;52.516;13.508;2022-12-28T07:37:29;4.39;97.45
69823;SHT31;57119;52.516;13.508;2022-12-28T07:39:55;4.35;97.58
69823;SHT31;57119;52.516;13.508;2022-12-28T07:42:20;4.43;97.30
69823;SHT31;57119;52.516;13.508;2022-12-28T07:44:46;4.45;97.19
69823;SHT31;57119;52.516;13.508;2022-12-28T07:47:13;4.53;97.14
69823;SHT31;57119;52.516;13.508;2022-12-28T07:49:38;4.52;96.97
69823;SHT31;57119;52.516;13.508;2022-12-28T07:52:04;4.53;97.30
69823;SHT31;57119;52.516;13.508;2022-12-28T07:54:30;4.63;97.42
69823;SHT31;57119;52.516;13.508;2022-12-28T07:56:56;4.56;97.26
69823;SHT31;57119;52.516;13.508;2022-12-28T07:59:21;4.62;96.98
69823;SHT31;57119;52.516;13.508;2022-12-28T08:01:49;4.60;97.60
69823;SHT31;57119;52.516;13.508;2022-12-28T08:04:14;4.67;97.54
69823;SHT31;57119;52.516;13.508;2022-12-28T08:06:43;4.73;97.33
69823;SHT31;57119;52.516;13.508;2022-12-28T08:09:11;4.70;97.51
69823;SHT31;57119;52.516;13.508;2022-12-28T08:11:40;4.63;97.94
69823;SHT31;57119;52.516;13.508;2022-12-28T08:14:06;4.69;97.80
69823;SHT31;57119;52.516;13.508;2022-12-28T08:16:35;4.60;98.68
69823;SHT31;57119;52.516;13.508;2022-12-28T08:19:01;4.76;98.19
69823;SHT31;57119;52.516;13.508;2022-12-28T08:21:35;4.72;98.27
69823;SHT31;57119;52.516;13.508;2022-12-28T08:24:01;4.81;98.74
69823;SHT31;57119;52.516;13.508;2022-12-28T08:26:30;4.83;98.07
69823;SHT31;57119;52.516;13.508;2022-12-28T08:28:58;4.91;98.11
69823;SHT31;57119;52.516;13.508;2022-12-28T08:31:26;5.05;97.74
69823;SHT31;57119;52.516;13.508;2022-12-28T08:33:53;5.08;97.65
69823;SHT31;57119;52.516;13.508;2022-12-28T08:36:19;5.14;97.91
69823;SHT31;57119;52.516;13.508;2022-12-28T08:38:45;5.12;97.46
69823;SHT31;57119;52.516;13.508;2022-12-28T08:41:13;5.14;97.25
69823;SHT31;57119;52.516;13.508;2022-12-28T08:43:39;5.18;97.34
69823;SHT31;57119;52.516;13.508;2022-12-28T08:46:06;5.21;97.40
69823;SHT31;57119;52.516;13.508;2022-12-28T08:48:33;5.20;97.13
69823;SHT31;57119;52.516;13.508;2022-12-28T08:51:07;5.28;96.85
69823;SHT31;57119;52.516;13.508;2022-12-28T08:53:33;5.35;97.19
69823;SHT31;57119;52.516;13.508;2022-12-28T08:56:04;5.34;97.01
69823;SHT31;57119;52.516;13.508;2022-12-28T08:58:30;5.39;96.62
69823;SHT31;57119;52.516;13.508;2022-12-28T09:00:55;5.45;96.53
69823;SHT31;57119;52.516;13.508;2022-12-28T09:03:21;5.48;95.85
69823;SHT31;57119;52.516;13.508;2022-12-28T09:05:46;5.52;95.87
69823;SHT31;57119;52.516;13.508;2022-12-28T09:08:11;5.53;95.81
69823;SHT31;57119;52.516;13.508;2022-12-28T09:10:37;5.59;95.85
69823;SHT31;57119;52.516;13.508;2022-12-28T09:13:02;5.59;95.15
69823;SHT31;57119;52.516;13.508;2022-12-28T09:15:28;5.66;94.96
69823;SHT31;57119;52.516;13.508;2022-12-28T09:17:53;5.71;95.14
69823;SHT31;57119;52.516;13.508;2022-12-28T09:20:19;5.71;94.92
69823;SHT31;57119;52.516;13.508;2022-12-28T09:22:44;5.80;95.40
69823;SHT31;57119;52.516;13.508;2022-12-28T09:25:09;5.80;95.57
69823;SHT31;57119;52.516;13.508;2022-12-28T09:27:35;5.80;94.82
69823;SHT31;57119;52.516;13.508;2022-12-28T09:30:00;5.77;95.09
69823;SHT31;57119;52.516;13.508;2022-12-28T09:32:29;5.80;95.12
69823;SHT31;57119;52.516;13.508;2022-12-28T09:34:54;5.87;94.56
69823;SHT31;57119;52.516;13.508;2022-12-28T09:37:20;5.83;94.88
69823;SHT31;57119;52.516;13.508;2022-12-28T09:39:45;5.87;95.31
69823;SHT31;57119;52.516;13.508;2022-12-28T09:42:16;5.97;95.25
69823;SHT31;57119;52.516;13.508;2022-12-28T09:52:28;6.01;95.41
69823;SHT31;57119;52.516;13.508;2022-12-28T09:55:02;6.07;94.86
69823;SHT31;57119;52.516;13.508;2022-12-28T09:57:36;6.10;94.70
69823;SHT31;57119;52.516;13.508;2022-12-28T10:00:03;6.20;94.43
69823;SHT31;57119;52.516;13.508;2022-12-28T10:02:33;6.24;94.49
69823;SHT31;57119;52.516;13.508;2022-12-28T10:05:01;6.27;94.55
69823;SHT31;57119;52.516;13.508;2022-12-28T10:07:26;6.25;94.32
69823;SHT31;57119;52.516;13.508;2022-12-28T10:09:52;6.29;94.51
69823;SHT31;57119;52.516;13.508;2022-12-28T10:12:22;6.42;94.10
69823;SHT31;57119;52.516;13.508;2022-12-28T10:14:49;6.44;93.96
69823;SHT31;57119;52.516;13.508;2022-12-28T10:17:16;6.35;94.28
69823;SHT31;57119;52.516;13.508;2022-12-28T10:19:47;6.41;94.35
69823;SHT31;57119;52.516;13.508;2022-12-28T10:22:17;6.42;94.14
69823;SHT31;57119;52.516;13.508;2022-12-28T10:24:44;6.45;94.18
69823;SHT31;57119;52.516;13.508;2022-12-28T10:27:18;6.66;93.66
69823;SHT31;57119;52.516;13.508;2022-12-28T10:29:44;6.68;93.64
69823;SHT31;57119;52.516;13.508;2022-12-28T10:32:10;6.59;94.10
69823;SHT31;57119;52.516;13.508;2022-12-28T10:34:58;6.73;93.95
69823;SHT31;57119;52.516;13.508;2022-12-28T10:37:29;6.65;94.00
69823;SHT31;57119;52.516;13.508;2022-12-28T10:40:04;6.71;94.46
69823;SHT31;57119;52.516;13.508;2022-12-28T10:42:36;6.64;95.01
69823;SHT31;57119;52.516;13.508;2022-12-28T10:47:57;6.66;95.93
69823;SHT31;57119;52.516;13.508;2022-12-28T10:53:29;6.55;97.07
69823;SHT31;57119;52.516;13.508;2022-12-28T10:56:23;6.59;97.09
69823;SHT31;57119;52.516;13.508;2022-12-28T10:58:50;6.66;97.15
69823;SHT31;57119;52.516;13.508;2022-12-28T11:01:27;6.68;97.19
69823;SHT31;57119;52.516;13.508;2022-12-28T11:04:15;6.77;97.27
69823;SHT31;57119;52.516;13.508;2022-12-28T11:06:57;6.89;96.62
69823;SHT31;57119;52.516;13.508;2022-12-28T11:09:32;6.90;96.45
69823;SHT31;57119;52.516;13.508;2022-12-28T11:12:22;6.97;95.94
69823;SHT31;57119;52.516;13.508;2022-12-28T11:14:48;7.06;96.35
69823;SHT31;57119;52.516;13.508;2022-12-28T11:17:17;7.06;96.12
69823;SHT31;57119;52.516;13.508;2022-12-28T11:19:44;7.03;95.86
69823;SHT31;57119;52.516;13.508;2022-12-28T11:22:11;7.14;95.79
69823;SHT31;57119;52.516;13.508;2022-12-28T11:24:38;7.15;95.47
69823;SHT31;57119;52.516;13.508;2022-12-28T11:27:04;7.21;95.08
69823;SHT31;57119;52.516;13.508;2022-12-28T11:29:31;7.27;95.14
69823;SHT31;57119;52.516;13.508;2022-12-28T11:32:02;7.32;95.24
69823;SHT31;57119;52.516;13.508;2022-12-28T11:34:30;7.40;94.68
69823;SHT31;57119;52.516;13.508;2022-12-28T11:36:55;7.36;94.48
69823;SHT31;57119;52.516;13.508;2022-12-28T11:41:51;7.45;93.86
69823;SHT31;57119;52.516;13.508;2022-12-28T11:44:22;7.54;93.68
69823;SHT31;57119;52.516;13.508;2022-12-28T11:47:00;7.71;93.57
69823;SHT31;57119;52.516;13.508;2022-12-28T11:49:31;7.73;93.34
69823;SHT31;57119;52.516;13.508;2022-12-28T11:57:36;8.23;91.51
69823;SHT31;57119;52.516;13.508;2022-12-28T12:02:55;8.06;92.04
69823;SHT31;57119;52.516;13.508;2022-12-28T12:13:50;7.87;92.92
69823;SHT31;57119;52.516;13.508;2022-12-28T12:16:45;8.16;92.21
69823;SHT31;57119;52.516;13.508;2022-12-28T12:19:24;8.30;91.70
69823;SHT31;57119;52.516;13.508;2022-12-28T12:24:35;8.61;90.57
69823;SHT31;57119;52.516;13.508;2022-12-28T12:27:14;8.72;90.37
69823;SHT31;57119;52.516;13.508;2022-12-28T12:29:52;8.95;89.71
69823;SHT31;57119;52.516;13.508;2022-12-28T12:32:29;8.95;89.90
69823;SHT31;57119;52.516;13.508;2022-12-28T12:35:02;10.67;85.75
69823;SHT31;57119;52.516;13.508;2022-12-28T12:37:55;12.08;81.07
69823;SHT31;57119;52.516;13.508;2022-12-28T12:43:24;12.01;79.65
69823;SHT31;57119;52.516;13.508;2022-12-28T12:48:33;9.88;85.76
69823;SHT31;57119;52.516;13.508;2022-12-28T12:51:13;9.74;86.97
69823;SHT31;57119;52.516;13.508;2022-12-28T13:02:19;9.50;87.60
69823;SHT31;57119;52.516;13.508;2022-12-28T13:04:49;10.26;86.37
69823;SHT31;57119;52.516;13.508;2022-12-28T13:07:19;10.22;85.99
69823;SHT31;57119;52.516;13.508;2022-12-28T13:09:45;10.43;85.89
69823;SHT31;57119;52.516;13.508;2022-12-28T13:12:15;11.62;82.85
69823;SHT31;57119;52.516;13.508;2022-12-28T13:14:51;13.03;78.51
69823;SHT31;57119;52.516;13.508;2022-12-28T13:17:20;12.72;78.46
69823;SHT31;57119;52.516;13.508;2022-12-28T13:19:47;11.26;82.13
69823;SHT31;57119;52.516;13.508;2022-12-28T13:22:26;10.54;84.26
69823;SHT31;57119;52.516;13.508;2022-12-28T13:24:52;10.20;85.81
69823;SHT31;57119;52.516;13.508;2022-12-28T13:27:19;9.95;86.41
69823;SHT31;57119;52.516;13.508;2022-12-28T13:29:50;9.70;87.36
69823;SHT31;57119;52.516;13.508;2022-12-28T13:32:34;9.43;88.29
69823;SHT31;57119;52.516;13.508;2022-12-28T13:35:00;9.33;88.82
69823;SHT31;57119;52.516;13.508;2022-12-28T13:37:26;9.19;89.18
69823;SHT31;57119;52.516;13.508;2022-12-28T13:40:10;9.16;89.50
69823;SHT31;57119;52.516;13.508;2022-12-28T13:42:50;9.03;89.76
69823;SHT31;57119;52.516;13.508;2022-12-28T13:45:20;9.00;90.01
69823;SHT31;57119;52.516;13.508;2022-12-28T13:47:49;8.86;90.29
69823;SHT31;57119;52.516;13.508;2022-12-28T13:50:19;8.88;90.50
69823;SHT31;57119;52.516;13.508;2022-12-28T13:53:01;8.72;90.96
69823;SHT31;57119;52.516;13.508;2022-12-28T13:55:35;8.71;91.06
69823;SHT31;57119;52.516;13.508;2022-12-28T13:58:14;8.67;90.96
69823;SHT31;57119;52.516;13.508;2022-12-28T14:00:49;8.64;91.24
69823;SHT31;57119;52.516;13.508;2022-12-28T14:03:16;8.61;91.29
69823;SHT31;57119;52.516;13.508;2022-12-28T14:05:48;8.55;91.58
69823;SHT31;57119;52.516;13.508;2022-12-28T14:08:15;8.47;91.76
69823;SHT31;57119;52.516;13.508;2022-12-28T14:10:41;8.41;92.01
69823;SHT31;57119;52.516;13.508;2022-12-28T14:13:08;8.38;92.16
69823;SHT31;57119;52.516;13.508;2022-12-28T14:15:35;8.30;92.51
69823;SHT31;57119;52.516;13.508;2022-12-28T14:18:01;8.30;92.52
69823;SHT31;57119;52.516;13.508;2022-12-28T14:20:28;8.34;92.43
69823;SHT31;57119;52.516;13.508;2022-12-28T14:22:54;8.33;92.47
69823;SHT31;57119;52.516;13.508;2022-12-28T14:25:20;8.30;92.60
69823;SHT31;57119;52.516;13.508;2022-12-28T14:28:02;8.30;92.71
69823;SHT31;57119;52.516;13.508;2022-12-28T14:30:38;8.21;92.95
69823;SHT31;57119;52.516;13.508;2022-12-28T14:33:13;8.16;93.27
69823;SHT31;57119;52.516;13.508;2022-12-28T14:35:47;8.07;93.42
69823;SHT31;57119;52.516;13.508;2022-12-28T14:38:18;8.06;93.47
69823;SHT31;57119;52.516;13.508;2022-12-28T14:40:51;8.02;93.80
69823;SHT31;57119;52.516;13.508;2022-12-28T14:43:31;8.00;93.94
69823;SHT31;57119;52.516;13.508;2022-12-28T14:46:30;7.99;93.83
69823;SHT31;57119;52.516;13.508;2022-12-28T14:48:56;7.97;93.95
69823;SHT31;57119;52.516;13.508;2022-12-28T14:54:11;7.89;94.18
69823;SHT31;57119;52.516;13.508;2022-12-28T14:56:38;7.82;94.41
69823;SHT31;57119;52.516;13.508;2022-12-28T14:59:14;7.83;94.40
69823;SHT31;57119;52.516;13.508;2022-12-28T15:01:44;7.82;94.50
69823;SHT31;57119;52.516;13.508;2022-12-28T15:04:33;7.79;94.60
69823;SHT31;57119;52.516;13.508;2022-12-28T15:07:00;7.86;94.47
69823;SHT31;57119;52.516;13.508;2022-12-28T15:09:26;7.87;94.33
69823;SHT31;57119;52.516;13.508;2022-12-28T15:12:12;7.87;94.42
69823;SHT31;57119;52.516;13.508;2022-12-28T15:14:38;7.92;94.31
69823;SHT31;57119;52.516;13.508;2022-12-28T15:17:03;7.87;94.45
69823;SHT31;57119;52.516;13.508;2022-12-28T15:19:29;7.85;94.64
69823;SHT31;57119;52.516;13.508;2022-12-28T15:21:54;7.89;94.50
69823;SHT31;57119;52.516;13.508;2022-12-28T15:24:20;7.93;94.60
69823;SHT31;57119;52.516;13.508;2022-12-28T15:26:45;7.93;94.50
69823;SHT31;57119;52.516;13.508;2022-12-28T15:29:11;7.93;94.63
69823;SHT31;57119;52.516;13.508;2022-12-28T15:31:37;7.97;94.47
69823;SHT31;57119;52.516;13.508;2022-12-28T15:34:02;7.94;94.56
69823;SHT31;57119;52.516;13.508;2022-12-28T15:36:28;7.92;94.49
69823;SHT31;57119;52.516;13.508;2022-12-28T15:38:56;7.99;94.38
69823;SHT31;57119;52.516;13.508;2022-12-28T15:41:23;8.02;94.27
69823;SHT31;57119;52.516;13.508;2022-12-28T15:44:08;8.03;94.15
69823;SHT31;57119;52.516;13.508;2022-12-28T15:46:33;7.99;94.18
69823;SHT31;57119;52.516;13.508;2022-12-28T15:49:03;7.96;94.26
69823;SHT31;57119;52.516;13.508;2022-12-28T15:51:29;7.92;94.40
69823;SHT31;57119;52.516;13.508;2022-12-28T15:53:54;7.89;94.54
69823;SHT31;57119;52.516;13.508;2022-12-28T15:56:25;7.89;94.29
69823;SHT31;57119;52.516;13.508;2022-12-28T15:58:52;7.93;94.10
69823;SHT31;57119;52.516;13.508;2022-12-28T16:01:18;7.94;94.05
69823;SHT31;57119;52.516;13.508;2022-12-28T16:03:43;7.97;93.92
69823;SHT31;57119;52.516;13.508;2022-12-28T16:06:09;8.00;93.63
69823;SHT31;57119;52.516;13.508;2022-12-28T16:08:34;7.97;93.70
69823;SHT31;57119;52.516;13.508;2022-12-28T16:11:11;8.03;93.57
69823;SHT31;57119;52.516;13.508;2022-12-28T16:13:37;8.00;93.54
69823;SHT31;57119;52.516;13.508;2022-12-28T16:16:04;8.04;93.14
69823;SHT31;57119;52.516;13.508;2022-12-28T16:18:30;8.07;92.90
69823;SHT31;57119;52.516;13.508;2022-12-28T16:21:04;8.12;92.74
69823;SHT31;57119;52.516;13.508;2022-12-28T16:23:32;8.07;92.83
69823;SHT31;57119;52.516;13.508;2022-12-28T16:25:58;8.06;92.74
69823;SHT31;57119;52.516;13.508;2022-12-28T16:28:24;8.09;92.50
69823;SHT31;57119;52.516;13.508;2022-12-28T16:30:51;8.09;92.25
69823;SHT31;57119;52.516;13.508;2022-12-28T16:33:17;8.03;92.42
69823;SHT31;57119;52.516;13.508;2022-12-28T16:35:43;8.13;92.20
69823;SHT31;57119;52.516;13.508;2022-12-28T16:38:18;8.19;91.92
69823;SHT31;57119;52.516;13.508;2022-12-28T16:40:44;8.19;91.69
69823;SHT31;57119;52.516;13.508;2022-12-28T16:43:11;8.21;91.63
69823;SHT31;57119;52.516;13.508;2022-12-28T16:45:39;8.24;91.34
69823;SHT31;57119;52.516;13.508;2022-12-28T16:48:06;8.27;91.49
69823;SHT31;57119;52.516;13.508;2022-12-28T16:50:32;8.24;91.63
69823;SHT31;57119;52.516;13.508;2022-12-28T16:52:58;8.24;91.39
69823;SHT31;57119;52.516;13.508;2022-12-28T16:55:29;8.21;91.41
69823;SHT31;57119;52.516;13.508;2022-12-28T16:57:54;8.20;91.63
69823;SHT31;57119;52.516;13.508;2022-12-28T17:00:20;8.26;91.52
69823;SHT31;57119;52.516;13.508;2022-12-28T17:02:46;8.29;91.54
69823;SHT31;57119;52.516;13.508;2022-12-28T17:05:11;8.29;91.51